createdAt,value
2022-11-28T00:03:52.633Z,5.93
2022-11-28T00:06:19.846Z,6.93
2022-11-28T00:08:46.686Z,8.13
2022-11-28T00:11:15.982Z,8.07
2022-11-28T00:13:43.119Z,6.00
2022-11-28T00:16:15.820Z,7.18
2022-11-28T00:18:42.444Z,6.97
2022-11-28T00:21:12.353Z,7.57
2022-11-28T00:23:39.340Z,7.95
2022-11-28T00:26:11.879Z,7.50
2022-11-28T00:28:38.616Z,7.80
2022-11-28T00:31:05.585Z,7.30
2022-11-28T00:33:33.173Z,8.07
2022-11-28T00:36:04.628Z,6.65
2022-11-28T00:38:31.617Z,7.32
2022-11-28T00:41:10.677Z,7.88
2022-11-28T00:43:37.793Z,7.78
2022-11-28T00:46:04.576Z,7.50
2022-11-28T00:48:32.476Z,7.40
2022-11-28T00:51:29.884Z,7.80
2022-11-28T00:54:01.145Z,8.82
2022-11-28T00:56:34.778Z,8.40
2022-11-28T00:59:01.445Z,7.82
2022-11-28T01:01:30.929Z,8.52
2022-11-28T01:04:00.230Z,8.50
2022-11-28T01:06:39.287Z,8.95
2022-11-28T01:09:15.410Z,8.13
2022-11-28T01:11:43.510Z,8.32
2022-11-28T01:14:10.744Z,7.68
2022-11-28T01:16:38.309Z,8.05
2022-11-28T01:19:05.760Z,7.90
2022-11-28T01:21:32.305Z,8.48
2022-11-28T01:23:58.877Z,8.68
2022-11-28T01:26:28.567Z,7.93
2022-11-28T01:28:55.919Z,7.43
2022-11-28T01:31:25.241Z,7.57
2022-11-28T01:33:52.339Z,6.43
2022-11-28T01:36:20.494Z,7.82
2022-11-28T01:38:47.376Z,8.48
2022-11-28T01:41:15.148Z,7.63
2022-11-28T01:44:06.619Z,7.40
2022-11-28T01:46:34.289Z,7.70
2022-11-28T01:49:26.165Z,7.97
2022-11-28T01:51:58.349Z,7.60
2022-11-28T01:54:26.296Z,7.50
2022-11-28T01:57:00.179Z,8.15
2022-11-28T01:59:30.382Z,7.60
2022-11-28T02:01:56.832Z,7.93
2022-11-28T02:04:27.078Z,7.22
2022-11-28T02:06:54.757Z,7.43
2022-11-28T02:09:21.513Z,9.40
2022-11-28T02:12:03.258Z,9.02
2022-11-28T02:14:56.544Z,8.20
2022-11-28T02:18:00.849Z,7.53
2022-11-28T02:20:46.181Z,7.63
2022-11-28T02:23:26.962Z,8.32
2022-11-28T02:26:16.130Z,7.75
2022-11-28T02:29:03.781Z,6.93
2022-11-28T02:32:21.648Z,8.48
2022-11-28T02:34:54.029Z,7.70
2022-11-28T02:37:36.204Z,8.07
2022-11-28T02:40:41.992Z,7.38
2022-11-28T02:43:17.262Z,6.93
2022-11-28T02:46:13.755Z,7.15
2022-11-28T02:48:55.349Z,8.50
2022-11-28T02:51:32.824Z,7.50
2022-11-28T02:54:02.205Z,7.00
2022-11-28T02:56:28.703Z,6.85
2022-11-28T02:58:55.243Z,6.78
2022-11-28T03:01:33.196Z,6.15
2022-11-28T03:04:24.238Z,5.28
2022-11-28T03:07:14.580Z,6.22
2022-11-28T03:09:52.776Z,5.28
2022-11-28T03:12:49.613Z,5.78
2022-11-28T03:15:23.029Z,5.50
2022-11-28T03:18:22.005Z,6.10
2022-11-28T03:20:56.423Z,6.07
2022-11-28T03:23:44.039Z,6.00
2022-11-28T03:26:38.568Z,5.78
2022-11-28T03:29:34.763Z,6.47
2022-11-28T03:32:08.848Z,6.05
2022-11-28T03:34:40.861Z,6.20
2022-11-28T03:37:40.430Z,6.60
2022-11-28T03:40:13.917Z,6.18
2022-11-28T03:42:45.384Z,6.60
2022-11-28T03:45:20.404Z,6.32
2022-11-28T03:47:54.168Z,7.38
2022-11-28T03:50:27.170Z,6.82
2022-11-28T03:53:00.713Z,7.80
2022-11-28T03:55:38.008Z,8.00
2022-11-28T03:58:11.783Z,7.97
2022-11-28T04:00:49.464Z,8.05
2022-11-28T04:03:15.985Z,7.47
2022-11-28T04:06:08.389Z,7.13
2022-11-28T04:08:46.872Z,8.65
2022-11-28T04:11:18.056Z,8.98
2022-11-28T04:13:53.679Z,9.60
2022-11-28T04:16:48.171Z,9.60
2022-11-28T04:19:30.177Z,10.00
2022-11-28T04:22:31.774Z,9.77
2022-11-28T04:25:03.805Z,9.93
2022-11-28T04:27:41.281Z,7.35
2022-11-28T04:30:09.338Z,11.48
2022-11-28T04:32:40.423Z,11.48
2022-11-28T04:35:11.887Z,10.15
2022-11-28T04:37:39.833Z,12.77
2022-11-28T04:40:11.106Z,12.30
2022-11-28T04:42:41.374Z,12.13
2022-11-28T04:45:16.857Z,11.65
2022-11-28T04:47:45.122Z,11.65
2022-11-28T04:50:13.514Z,11.90
2022-11-28T04:55:31.458Z,12.13
2022-11-28T04:58:08.742Z,11.38
2022-11-28T05:00:37.372Z,12.80
2022-11-28T05:03:05.994Z,12.43
2022-11-28T05:05:42.896Z,11.70
2022-11-28T05:08:09.814Z,12.55
2022-11-28T05:10:36.339Z,15.40
2022-11-28T05:13:03.228Z,14.02
2022-11-28T05:15:30.046Z,14.32
2022-11-28T05:17:56.657Z,14.63
2022-11-28T05:20:23.651Z,12.80
2022-11-28T05:22:50.409Z,13.80
2022-11-28T05:25:17.300Z,14.40
2022-11-28T05:27:43.771Z,12.82
2022-11-28T05:30:11.570Z,14.13
2022-11-28T05:32:38.215Z,14.13
2022-11-28T05:35:05.227Z,16.42
2022-11-28T05:37:32.241Z,15.30
2022-11-28T05:39:58.903Z,16.98
2022-11-28T05:42:26.153Z,16.45
2022-11-28T05:44:52.742Z,14.90
2022-11-28T05:47:19.488Z,16.75
2022-11-28T05:49:46.972Z,16.38
2022-11-28T05:52:13.507Z,16.73
2022-11-28T05:54:40.049Z,14.75
2022-11-28T05:57:07.215Z,15.07
2022-11-28T05:59:33.906Z,17.73
2022-11-28T06:02:00.987Z,13.43
2022-11-28T06:04:27.674Z,16.48
2022-11-28T06:06:54.314Z,17.35
2022-11-28T06:09:25.653Z,17.83
2022-11-28T06:11:52.797Z,15.20
2022-11-28T06:14:19.281Z,17.90
2022-11-28T06:16:45.749Z,16.58
2022-11-28T06:19:13.316Z,17.08
2022-11-28T06:21:45.477Z,14.82
2022-11-28T06:24:12.267Z,18.08
2022-11-28T06:26:38.832Z,17.90
2022-11-28T06:29:14.602Z,15.77
2022-11-28T06:31:46.717Z,15.52
2022-11-28T06:34:13.862Z,14.95
2022-11-28T06:36:40.628Z,16.00
2022-11-28T06:39:07.488Z,15.80
2022-11-28T06:41:34.649Z,15.40
2022-11-28T06:44:01.953Z,15.60
2022-11-28T06:46:28.767Z,14.20
2022-11-28T06:49:38.258Z,13.85
2022-11-28T06:52:05.161Z,13.20
2022-11-28T06:54:32.272Z,12.95
2022-11-28T06:56:59.294Z,14.18
2022-11-28T06:59:25.836Z,14.10
2022-11-28T07:01:52.552Z,12.43
2022-11-28T07:04:19.110Z,14.15
2022-11-28T07:06:45.613Z,15.88
2022-11-28T07:09:12.031Z,13.90
2022-11-28T07:11:41.442Z,14.18
2022-11-28T07:14:07.877Z,13.32
2022-11-28T07:16:34.376Z,14.63
2022-11-28T07:19:01.243Z,14.57
2022-11-28T07:21:28.933Z,15.38
2022-11-28T07:23:55.484Z,14.18
2022-11-28T07:26:22.429Z,13.35
2022-11-28T07:28:49.990Z,13.07
2022-11-28T07:31:20.792Z,14.18
2022-11-28T07:33:49.011Z,12.77
2022-11-28T07:36:18.686Z,15.13
2022-11-28T07:38:54.078Z,12.55
2022-11-28T07:41:26.263Z,14.32
2022-11-28T07:44:02.003Z,14.40
2022-11-28T07:46:30.195Z,15.35
2022-11-28T07:48:56.897Z,16.02
2022-11-28T07:51:26.369Z,16.15
2022-11-28T07:53:53.374Z,15.00
2022-11-28T07:56:22.510Z,16.38
2022-11-28T07:58:49.681Z,16.08
2022-11-28T08:01:21.661Z,15.65
2022-11-28T08:03:48.866Z,15.85
2022-11-28T08:06:16.725Z,16.20
2022-11-28T08:08:44.151Z,15.77
2022-11-28T08:11:11.364Z,17.00
2022-11-28T08:13:38.928Z,17.48
2022-11-28T08:16:07.671Z,16.48
2022-11-28T08:18:35.535Z,17.70
2022-11-28T08:21:29.897Z,16.65
2022-11-28T08:23:59.615Z,17.63
2022-11-28T08:26:30.451Z,17.02
2022-11-28T08:28:58.598Z,16.25
2022-11-28T08:31:27.651Z,16.42
2022-11-28T08:33:55.921Z,16.70
2022-11-28T08:36:22.854Z,18.48
2022-11-28T08:39:03.306Z,16.95
2022-11-28T08:41:30.559Z,16.73
2022-11-28T08:43:57.089Z,17.05
2022-11-28T08:46:25.171Z,15.88
2022-11-28T08:48:52.730Z,18.35
2022-11-28T08:51:21.025Z,18.13
2022-11-28T08:53:49.414Z,17.65
2022-11-28T08:56:16.471Z,18.45
2022-11-28T08:58:42.970Z,18.35
2022-11-28T09:01:21.400Z,20.00
2022-11-28T09:03:48.406Z,19.33
2022-11-28T09:06:16.310Z,20.02
2022-11-28T09:08:43.297Z,19.52
2022-11-28T09:11:12.447Z,20.60
2022-11-28T09:13:39.051Z,17.52
2022-11-28T09:16:06.052Z,19.05
2022-11-28T09:18:32.520Z,21.55
2022-11-28T09:21:01.094Z,19.38
2022-11-28T09:23:28.627Z,19.75
2022-11-28T09:25:56.855Z,20.08
2022-11-28T09:28:24.524Z,18.85
2022-11-28T09:30:59.301Z,19.33
2022-11-28T09:33:25.909Z,18.63
2022-11-28T09:35:52.390Z,20.27
2022-11-28T09:38:18.927Z,19.55
2022-11-28T09:40:45.404Z,22.25
2022-11-28T09:43:35.683Z,20.27
2022-11-28T09:46:08.224Z,17.80
2022-11-28T09:48:53.408Z,19.70
2022-11-28T09:51:28.579Z,20.90
2022-11-28T09:54:27.707Z,18.75
2022-11-28T09:56:54.282Z,19.83
2022-11-28T09:59:28.349Z,21.05
2022-11-28T10:02:10.331Z,20.70
2022-11-28T10:05:01.430Z,17.92
2022-11-28T10:07:55.490Z,20.00
2022-11-28T10:10:31.148Z,19.83
2022-11-28T10:13:12.652Z,22.00
2022-11-28T10:16:16.873Z,18.95
2022-11-28T10:18:54.777Z,19.52
2022-11-28T10:21:36.573Z,19.80
2022-11-28T10:24:32.263Z,18.33
2022-11-28T10:27:03.221Z,18.70
2022-11-28T10:29:51.506Z,19.50
2022-11-28T10:32:23.851Z,21.17
2022-11-28T10:34:59.928Z,17.83
2022-11-28T10:37:31.500Z,20.15
2022-11-28T10:40:17.169Z,19.15
2022-11-28T10:42:58.655Z,19.55
2022-11-28T10:46:01.018Z,19.75
2022-11-28T10:48:41.571Z,21.33
2022-11-28T10:51:34.909Z,21.88
2022-11-28T10:54:39.228Z,18.13
2022-11-28T10:57:14.952Z,20.42
2022-11-28T11:00:05.456Z,19.38
2022-11-28T11:02:40.092Z,20.38
2022-11-28T11:05:13.325Z,19.92
2022-11-28T11:07:45.768Z,18.35
2022-11-28T11:10:17.093Z,19.65
2022-11-28T11:12:44.284Z,20.75
2022-11-28T11:15:24.909Z,20.70
2022-11-28T11:20:33.542Z,20.67
2022-11-28T11:23:23.536Z,19.70
2022-11-28T11:25:57.864Z,19.17
2022-11-28T11:28:46.222Z,23.08
2022-11-28T11:31:25.920Z,23.67
2022-11-28T11:34:04.813Z,21.50
2022-11-28T11:36:36.876Z,22.42
2022-11-28T11:39:14.169Z,24.15
2022-11-28T11:42:07.005Z,22.80
2022-11-28T11:47:09.234Z,23.48
2022-11-28T11:49:37.945Z,26.58
2022-11-28T11:52:18.046Z,25.67
2022-11-28T11:55:01.558Z,26.88
2022-11-28T11:57:41.765Z,26.13
2022-11-28T12:00:18.305Z,24.67
2022-11-28T12:02:57.583Z,28.38
2022-11-28T12:06:14.944Z,27.80
2022-11-28T12:09:01.963Z,24.13
2022-11-28T12:11:35.127Z,28.60
2022-11-28T12:14:24.678Z,25.00
2022-11-28T12:16:52.846Z,26.77
2022-11-28T12:19:39.382Z,24.27
2022-11-28T12:22:13.113Z,27.25
2022-11-28T12:25:20.948Z,25.38
2022-11-28T12:28:13.593Z,24.85
2022-11-28T12:31:06.412Z,26.58
2022-11-28T12:36:39.717Z,24.10
2022-11-28T12:40:03.580Z,26.88
2022-11-28T12:42:52.974Z,24.85
2022-11-28T12:45:43.580Z,26.58
2022-11-28T12:48:48.777Z,26.48
2022-11-28T12:51:39.303Z,29.45
2022-11-28T12:54:24.222Z,28.23
2022-11-28T12:57:23.976Z,27.27
2022-11-28T13:00:08.375Z,24.95
2022-11-28T13:02:55.176Z,24.13
2022-11-28T13:05:44.227Z,25.13
2022-11-28T13:08:17.089Z,24.65
2022-11-28T13:11:14.992Z,26.70
2022-11-28T13:13:52.668Z,23.40
2022-11-28T13:16:42.278Z,25.17
2022-11-28T13:19:36.754Z,21.27
2022-11-28T13:22:32.865Z,24.85
2022-11-28T13:25:32.529Z,23.98
2022-11-28T13:28:14.906Z,24.33
2022-11-28T13:30:57.961Z,21.10
2022-11-28T13:33:49.570Z,20.77
2022-11-28T13:39:51.189Z,22.67
2022-11-28T13:45:52.551Z,20.10
2022-11-28T13:51:33.647Z,20.23
2022-11-28T13:54:24.393Z,19.02
2022-11-28T13:57:28.933Z,20.55
2022-11-28T14:00:18.599Z,19.58
2022-11-28T14:02:52.598Z,18.80
2022-11-28T14:05:41.749Z,18.75
2022-11-28T14:08:10.663Z,20.70
2022-11-28T14:10:57.385Z,18.98
2022-11-28T14:13:48.196Z,19.25
2022-11-28T14:16:28.730Z,20.02
2022-11-28T14:23:15.329Z,19.90
2022-11-28T14:26:00.657Z,21.35
2022-11-28T14:29:06.763Z,20.95
2022-11-28T14:35:55.065Z,20.08
2022-11-28T14:38:34.546Z,19.88
2022-11-28T14:41:08.071Z,18.02
2022-11-28T14:43:46.527Z,21.77
2022-11-28T14:46:16.324Z,19.15
2022-11-28T14:48:58.242Z,19.42
2022-11-28T14:51:56.524Z,18.42
2022-11-28T14:54:48.246Z,17.80
2022-11-28T14:57:25.765Z,20.08
2022-11-28T14:59:57.959Z,20.25
2022-11-28T15:03:15.830Z,20.30
2022-11-28T15:05:52.678Z,20.30
2022-11-28T15:08:43.205Z,18.38
2022-11-28T15:11:32.105Z,19.23
2022-11-28T15:14:08.455Z,18.08
2022-11-28T15:16:39.756Z,18.63
2022-11-28T15:19:29.656Z,17.95
2022-11-28T15:21:56.657Z,17.98
2022-11-28T15:24:30.507Z,18.40
2022-11-28T15:27:16.373Z,17.58
2022-11-28T15:29:53.596Z,17.48
2022-11-28T15:32:20.440Z,18.48
2022-11-28T15:34:54.174Z,17.20
2022-11-28T15:37:23.303Z,18.30
2022-11-28T15:39:50.232Z,18.65
2022-11-28T15:42:30.033Z,18.10
2022-11-28T15:45:13.814Z,16.70
2022-11-28T15:47:40.693Z,16.17
2022-11-28T15:50:10.263Z,17.02
2022-11-28T15:52:37.049Z,16.88
2022-11-28T15:55:18.543Z,17.58
2022-11-28T15:57:45.337Z,16.60
2022-11-28T16:00:18.391Z,16.33
2022-11-28T16:02:46.370Z,16.13
2022-11-28T16:05:21.910Z,17.75
2022-11-28T16:07:51.398Z,16.55
2022-11-28T16:10:34.659Z,15.77
2022-11-28T16:13:08.842Z,17.60
2022-11-28T16:15:37.284Z,18.63
2022-11-28T16:18:06.512Z,16.80
2022-11-28T16:20:36.412Z,16.63
2022-11-28T16:23:19.492Z,18.13
2022-11-28T16:25:58.568Z,17.63
2022-11-28T16:29:00.309Z,17.45
2022-11-28T16:31:28.730Z,15.32
2022-11-28T16:33:56.710Z,16.23
2022-11-28T16:36:38.576Z,15.55
2022-11-28T16:39:11.213Z,17.50
2022-11-28T16:41:50.263Z,17.15
2022-11-28T16:44:19.938Z,16.92
2022-11-28T16:46:57.507Z,17.10
2022-11-28T16:49:33.647Z,16.77
2022-11-28T16:52:22.136Z,17.17
2022-11-28T16:54:49.923Z,15.43
2022-11-28T16:57:16.841Z,18.10
2022-11-28T16:59:44.589Z,17.35
2022-11-28T17:02:18.956Z,18.77
2022-11-28T17:04:47.155Z,18.77
2022-11-28T17:07:18.014Z,17.67
2022-11-28T17:09:46.774Z,19.20
2022-11-28T17:13:07.384Z,19.08
2022-11-28T17:15:35.069Z,18.67
2022-11-28T17:18:01.683Z,17.38
2022-11-28T17:20:28.198Z,19.20
2022-11-28T17:22:56.422Z,22.02
2022-11-28T17:25:23.058Z,19.25
2022-11-28T17:32:14.696Z,16.80
2022-11-28T17:34:42.235Z,18.23
2022-11-28T17:37:09.821Z,21.30
2022-11-28T17:39:36.499Z,18.08
2022-11-28T17:42:03.690Z,17.67
2022-11-28T17:44:36.118Z,18.77
2022-11-28T17:47:03.854Z,16.40
2022-11-28T17:49:31.533Z,19.80
2022-11-28T17:52:00.170Z,15.43
2022-11-28T17:54:29.588Z,18.38
2022-11-28T17:56:56.273Z,20.20
2022-11-28T17:59:24.902Z,19.45
2022-11-28T18:01:51.580Z,20.83
2022-11-28T18:04:18.625Z,20.65
2022-11-28T18:06:47.160Z,21.63
2022-11-28T18:09:14.464Z,22.60
2022-11-28T18:11:41.826Z,21.77
2022-11-28T18:14:08.554Z,23.20
2022-11-28T18:16:36.259Z,24.45
2022-11-28T18:19:04.124Z,25.38
2022-11-28T18:21:31.435Z,24.13
2022-11-28T18:23:58.375Z,23.70
2022-11-28T18:26:26.206Z,23.75
2022-11-28T18:28:53.624Z,25.08
2022-11-28T18:31:26.081Z,23.48
2022-11-28T18:33:57.523Z,24.92
2022-11-28T18:36:29.702Z,24.40
2022-11-28T18:38:58.432Z,23.42
2022-11-28T18:41:24.927Z,24.65
2022-11-28T18:43:55.673Z,24.27
2022-11-28T18:46:22.220Z,25.83
2022-11-28T18:48:48.868Z,22.35
2022-11-28T18:51:20.699Z,23.83
2022-11-28T18:53:50.624Z,20.80
2022-11-28T18:56:19.785Z,21.92
2022-11-28T18:58:48.354Z,22.85
2022-11-28T19:01:30.019Z,20.65
2022-11-28T19:04:02.099Z,22.80
2022-11-28T19:06:28.655Z,21.90
2022-11-28T19:08:58.615Z,24.20
2022-11-28T19:11:25.704Z,21.73
2022-11-28T19:13:53.621Z,21.58
2022-11-28T19:16:22.965Z,22.98
2022-11-28T19:18:49.983Z,21.40
2022-11-28T19:21:20.094Z,20.98
2022-11-28T19:23:49.981Z,20.20
2022-11-28T19:26:19.041Z,19.70
2022-11-28T19:28:46.190Z,19.95
2022-11-28T19:31:33.649Z,19.00
2022-11-28T19:34:26.702Z,19.75
2022-11-28T19:36:54.196Z,16.90
2022-11-28T19:39:25.429Z,16.55
2022-11-28T19:41:53.749Z,19.35
2022-11-28T19:46:51.495Z,16.27
2022-11-28T19:49:21.055Z,17.60
2022-11-28T19:51:48.050Z,18.40
2022-11-28T19:54:15.825Z,17.92
2022-11-28T19:56:42.340Z,18.52
2022-11-28T19:59:10.892Z,18.23
2022-11-28T20:01:38.953Z,19.17
2022-11-28T20:04:06.212Z,19.65
2022-11-28T20:06:34.108Z,18.95
2022-11-28T20:09:04.433Z,18.90
2022-11-28T20:11:34.324Z,18.95
2022-11-28T20:14:06.592Z,17.67
2022-11-28T20:16:35.005Z,16.45
2022-11-28T20:19:02.317Z,14.90
2022-11-28T20:21:30.727Z,16.60
2022-11-28T20:24:05.052Z,17.25
2022-11-28T20:26:36.207Z,18.90
2022-11-28T20:29:02.776Z,14.93
2022-11-28T20:31:33.782Z,19.02
2022-11-28T20:34:01.427Z,16.90
2022-11-28T20:36:30.418Z,16.33
2022-11-28T20:38:58.180Z,19.08
2022-11-28T20:41:26.324Z,19.02
2022-11-28T20:43:53.138Z,16.00
2022-11-28T20:46:40.885Z,16.75
2022-11-28T20:49:10.242Z,17.67
2022-11-28T20:51:38.321Z,16.27
2022-11-28T20:54:07.535Z,14.93
2022-11-28T20:57:05.178Z,14.77
2022-11-28T20:59:26.533Z,15.15
2022-11-28T21:01:53.404Z,15.57
2022-11-28T21:04:20.254Z,16.75
2022-11-28T21:06:50.885Z,14.82
2022-11-28T21:09:20.168Z,15.27
2022-11-28T21:11:57.298Z,15.77
2022-11-28T21:14:25.850Z,16.10
2022-11-28T21:16:52.596Z,14.52
2022-11-28T21:19:19.345Z,14.55
2022-11-28T21:21:55.179Z,13.48
2022-11-28T21:24:22.119Z,14.88
2022-11-28T21:26:54.521Z,14.77
2022-11-28T21:29:27.487Z,16.25
2022-11-28T21:31:54.561Z,14.95
2022-11-28T21:34:22.424Z,14.07
2022-11-28T21:36:49.262Z,14.02
2022-11-28T21:39:24.199Z,14.73
2022-11-28T21:41:51.397Z,13.48
2022-11-28T21:44:19.364Z,13.27
2022-11-28T21:46:46.068Z,14.68
2022-11-28T21:49:12.823Z,14.07
2022-11-28T21:51:39.485Z,13.25
2022-11-28T21:54:06.448Z,13.07
2022-11-28T21:56:35.311Z,13.82
2022-11-28T21:59:05.137Z,14.30
2022-11-28T22:01:33.417Z,14.38
2022-11-28T22:04:02.843Z,14.35
2022-11-28T22:06:30.183Z,14.55
2022-11-28T22:09:07.115Z,13.88
2022-11-28T22:11:35.632Z,16.45
2022-11-28T22:14:02.158Z,16.58
2022-11-28T22:16:29.488Z,16.77
2022-11-28T22:18:58.584Z,18.90
2022-11-28T22:24:12.195Z,19.92
2022-11-28T22:26:38.716Z,21.00
2022-11-28T22:29:05.326Z,21.88
2022-11-28T22:31:31.981Z,21.60
2022-11-28T22:33:58.604Z,22.75
2022-11-28T22:36:25.115Z,20.33
2022-11-28T22:38:56.326Z,22.98
2022-11-28T22:41:28.431Z,22.15
2022-11-28T22:44:00.666Z,24.58
2022-11-28T22:46:27.919Z,26.65
2022-11-28T22:48:54.397Z,24.92
2022-11-28T22:51:24.094Z,26.27
2022-11-28T22:53:59.069Z,25.00
2022-11-28T22:56:26.406Z,28.35
2022-11-28T22:58:52.975Z,27.17
2022-11-28T23:01:23.913Z,25.30
2022-11-28T23:03:51.534Z,26.88
2022-11-28T23:06:20.985Z,27.35
2022-11-28T23:08:48.001Z,25.73
2022-11-28T23:11:19.729Z,28.00
2022-11-28T23:13:48.032Z,27.17
2022-11-28T23:18:42.245Z,27.00
2022-11-28T23:21:09.805Z,30.05
2022-11-28T23:23:36.895Z,28.55
2022-11-28T23:26:11.565Z,30.15
2022-11-28T23:28:38.880Z,28.20
2022-11-28T23:31:13.237Z,29.33
2022-11-28T23:36:17.427Z,28.60
2022-11-28T23:38:45.174Z,29.92
2022-11-28T23:41:12.245Z,30.25
2022-11-28T23:43:38.933Z,28.85
2022-11-28T23:46:06.706Z,30.35
2022-11-28T23:48:33.338Z,30.67
2022-11-28T23:50:59.916Z,29.48
2022-11-28T23:53:26.375Z,32.10
2022-11-28T23:55:52.808Z,29.52
2022-11-28T23:58:19.333Z,31.77
